Eunola, Alabama
Current Conditions -  °F | °C
As of 12:58 PM on Tuesday 27 Jan 2015 (Local Time) from KOZR Reporting Station
Clear Clear  
Wind Chill: 61°   Ceiling: Unl
Heat Index: 61°   Visibility: 10mi
Dew Point: 33°   Wind: 13mph
Humidity: 35%   Direction: 320°NW
Pressure: 29.98"   Gusts: 20mph
Location:  31.0669°N, 85.9172°W
Report Text: KOZR 271858Z AUTO 32011G17KT 10SM CLR 16/00 A2998 RMK AO2 SLP155 T01590003 RVRNO
Loading
Personal Weather Stations






























Interactive Weather Map New forecast layout! Learn more

10-Day Weather Forecast

Advertisements
Track Severe Weather on mobile